Hauptseite
METAR-TAF:

METAR-TAF

Flughäfen :

Gloucester, England

Breite: 51-54N, Länge: 002-10W, Höhe: 29 m

Beobachtung

Neuester Wetterbericht von vor 11 Stunden und 28 Minuten, um 17:20 UTC
Wind 3 kt aus Süd/Südwest
Temperatur 6°C
Luftfeuchtigkeit 87%
Luftdruck 1007 hPa
Sichtweite 10 km oder mehr
Aufgelockert bewölkt in der Höhe von 3000 ft

METAR: EGBJ 161720Z 21003KT 9999 SCT030 06/04 Q1007

Zeit: 04:48 (04:48 UTC)

Prognose

Neuester Wetterbericht von vor 14 Stunden und 47 Minuten, um 14:01 UTC
Gültige Prognose vom 16 um 15 UTC bis 16 um 19 UTC
Wind 2 kt aus unterschiedlichen Richtungen
Sichtweite 10 km oder mehr
Leicht bewölkt in der Höhe von 2500 ft
Aufgelockert bewölkt in der Höhe von 4500 ft

TAF: EGBJ 161401Z 1615/1619 VRB02KT 9999 FEW025 SCT045

Wetterbeobachtungen und Prognosen von mehr als 4000 Flughäfen (METAR und TAF Bericht).

Die verfügbaren Stationen werden durch gelbe und rote Markierungen auf der Karte dargestellt.

Führen Sie die Maus auf sie, um den Namen der Station zu sehen.

Darauf klicken, um die Beobachtung von Wetterbeobachtungen und Prognosen zu sehen.

Um die Karte zu ändern : klicken Sie auf den grünen Tasten mit einem schwarzen Kreuz Zum Vergrößern, auf den grünen Button mit einem Gedankenstrich zu verkleinern, oder auf die grünen Pfeile für benachbarte Karten.


METAR-TAF: